Pelagos — SZSW — position and weather

sailwx.info

Track history (hours):
 
Tides and Currents Weather Stations Pressure Air Temp Water Temp Dewpoint Dewpoint Depression Visibility Wind Speed Wind Dir Waves Ship Positions

Pelagos

Last reported at 2017-Feb-20 02:08 UTC. Time now 2017-Feb-20 14:06 UTC.
Position N 59°38' E 023°20'.

Length 249 m; draft 14.6 m.

Type: Ship (hazmat cat C). MMSI: 240335000.

Date/timePositionNaut miles runAvg speedWind from/ knotsBaromVisibWave heightAir tempDewpointWater temp
2017-Feb-20 02:08N 59°38' E 023°20'911.7
2017-Feb-20 01:24N 59°40' E 023°36'1011.6
2017-Feb-20 00:31N 59°43' E 023°55'7610.8
2017-Feb-19 17:31N 59°59' E 026°22'10 9.8
2017-Feb-19 16:33N 60°01' E 026°41'2310.5
2017-Feb-19 14:22N 60°06' E 027°26'911.0
2017-Feb-19 13:33N 60°11' E 027°41'10 9.8
2017-Feb-19 12:32N 60°10' E 028°01'8 7.9
2017-Feb-19 11:34N 60°06' E 028°15'9 8.8
2017-Feb-19 10:34N 60°02' E 028°30'5 5.4
2017-Feb-19 09:34N 59°58' E 028°36'7 6.7
2017-Feb-19 08:34N 59°52' E 028°28'9 8.9
2017-Feb-19 07:33N 59°43' E 028°25'1 1.1
2017-Feb-19 06:24N 59°42' E 028°26'0 0.0
2017-Feb-19 05:24N 59°42' E 028°26'0 0.0
2017-Feb-19 04:27N 59°42' E 028°26'0 0.0
2017-Feb-19 03:27N 59°42' E 028°26'0 0.0
2017-Feb-19 02:30N 59°42' E 028°26'0 0.0
2017-Feb-19 01:30N 59°42' E 028°26'0 0.0
2017-Feb-19 00:30N 59°42' E 028°26'0 0.0
2017-Feb-18 23:30N 59°42' E 028°26'0 0.0
2017-Feb-18 22:33N 59°42' E 028°26'0 0.0
2017-Feb-18 21:33N 59°42' E 028°26'0 0.0
2017-Feb-18 20:33N 59°42' E 028°26'0 0.0
2017-Feb-18 19:33N 59°42' E 028°26'0 0.0
2017-Feb-18 18:33N 59°42' E 028°26'0 0.0
2017-Feb-18 17:33N 59°42' E 028°26'0 0.0
2017-Feb-18 16:24N 59°42' E 028°26'0 0.0
2017-Feb-18 15:24N 59°42' E 028°26'0 0.0
2017-Feb-18 14:27N 59°42' E 028°26'0 0.0
2017-Feb-18 13:27N 59°42' E 028°26'0 0.0
2017-Feb-18 12:30N 59°42' E 028°26'0 0.0
2017-Feb-18 11:30N 59°42' E 028°26'0 0.0
2017-Feb-18 10:30N 59°42' E 028°26'0 0.0
2017-Feb-18 09:33N 59°42' E 028°26'0 0.0
2017-Feb-18 08:30N 59°42' E 028°26'0 0.0
2017-Feb-18 07:30N 59°42' E 028°26'0 0.0
2017-Feb-18 06:33N 59°42' E 028°26'0 0.0
2017-Feb-18 05:33N 59°42' E 028°26'0 0.0
2017-Feb-18 04:33N 59°42' E 028°26'0 0.0
2017-Feb-18 03:33N 59°42' E 028°26'0 0.0
2017-Feb-18 02:33N 59°42' E 028°26'0 0.0
2017-Feb-18 01:33N 59°42' E 028°26'0 0.0
2017-Feb-18 00:24N 59°42' E 028°26'0 0.0
2017-Feb-17 23:25N 59°42' E 028°26'0 0.0
2017-Feb-17 22:24N 59°42' E 028°26'0 0.0
2017-Feb-17 21:28N 59°42' E 028°26'0 0.0
2017-Feb-17 20:28N 59°42' E 028°26'0 0.0
2017-Feb-17 19:28N 59°42' E 028°26'0 0.0
2017-Feb-17 18:31N 59°42' E 028°26'0 0.0
2017-Feb-17 17:33N 59°42' E 028°26'1 0.7
2017-Feb-17 16:33N 59°42' E 028°24'8 8.2
2017-Feb-17 15:33N 59°50' E 028°25'8 7.6
2017-Feb-17 14:33N 59°56' E 028°33'0 0.1
2017-Feb-17 13:33N 59°56' E 028°33'0 0.1
2017-Feb-17 12:33N 59°56' E 028°33'1 0.7
2017-Feb-17 11:33N 59°57' E 028°34'2 1.6
2017-Feb-17 10:33N 59°58' E 028°37'0 0.1
2017-Feb-17 09:33N 59°58' E 028°37'0 0.0
2017-Feb-17 08:33N 59°58' E 028°37'0 0.0
2017-Feb-17 07:33N 59°58' E 028°37'5 4.8
2017-Feb-17 06:33N 60°02' E 028°32'9 9.2
2017-Feb-17 05:33N 60°07' E 028°16'9 8.8
2017-Feb-17 04:33N 60°09' E 027°60'9 8.6
2017-Feb-17 03:33N 60°10' E 027°42'9 9.0
2017-Feb-17 02:33N 60°05' E 027°27'10 9.1
2017-Feb-17 01:25N 59°60' E 027°09'8 9.0
2017-Feb-17 00:33N 59°59' E 026°54'10 9.6
2017-Feb-16 23:33N 59°59' E 026°35'1110.7
2017-Feb-16 22:31N 59°56' E 026°14'1212.4
2017-Feb-16 21:33N 59°53' E 025°50'1413.6
2017-Feb-16 20:33N 59°50' E 025°24'4313.6
2017-Feb-16 17:22N 59°40' E 024°00'1113.5
2017-Feb-16 16:33N 59°36' E 023°40'1913.6
2017-Feb-16 15:10N 59°30' E 023°04'813.7
2017-Feb-16 14:33N 59°27' E 022°49'1313.5
2017-Feb-16 13:33N 59°21' E 022°26'27312.9
2017-Feb-15 16:21N 55°50' E 017°02'5213.4
2017-Feb-15 12:27N 55°37' E 015°32'1213.1
2017-Feb-15 11:32N 55°33' E 015°12'1313.1
2017-Feb-15 10:33N 55°28' E 014°51'1313.3
2017-Feb-15 09:33N 55°20' E 014°32'1313.1
2017-Feb-15 08:33N 55°11' E 014°16'1313.2
2017-Feb-15 07:33N 55°10' E 013°53'1313.2
2017-Feb-15 06:33N 55°12' E 013°30'1313.2
2017-Feb-15 05:33N 55°14' E 013°07'1312.5
2017-Feb-15 04:33N 55°16' E 012°45'9 9.0
2017-Feb-15 03:33N 55°24' E 012°39'9 9.2
2017-Feb-15 02:33N 55°33' E 012°47'9 9.3
2017-Feb-15 01:33N 55°40' E 012°55'1313.2
2017-Feb-15 00:33N 55°52' E 012°45'1212.4
2017-Feb-14 23:33N 56°04' E 012°38'9 9.3
2017-Feb-14 22:33N 56°10' E 012°25'10 9.6
2017-Feb-14 21:33N 56°15' E 012°10'1010.0
2017-Feb-14 20:33N 56°23' E 011°60'1110.8
2017-Feb-14 19:33N 56°34' E 011°56'1110.8
2017-Feb-14 18:33N 56°44' E 011°52'1313.0
2017-Feb-14 17:33N 56°57' E 011°44'1313.1
2017-Feb-14 16:33N 57°09' E 011°36'1212.0
2017-Feb-14 15:33N 57°20' E 011°28'1212.0
2017-Feb-14 14:33N 57°30' E 011°16'1212.1
2017-Feb-14 13:33N 57°39' E 010°60'10 9.6
2017-Feb-14 12:31N 57°40' E 010°41'0 0.1
2017-Feb-14 11:34N 57°40' E 010°41'0 0.1
2017-Feb-14 10:25N 57°40' E 010°41'0 0.0
2017-Feb-14 09:31N 57°40' E 010°41'0 0.2
2017-Feb-14 08:25N 57°40' E 010°41'0 0.0
2017-Feb-14 07:31N 57°40' E 010°41'0 0.0
2017-Feb-14 06:25N 57°40' E 010°41'0 0.0
2017-Feb-14 05:28N 57°40' E 010°41'0 0.0
2017-Feb-14 04:34N 57°40' E 010°41'0 0.0
2017-Feb-14 03:31N 57°40' E 010°41'0 0.0
2017-Feb-14 02:31N 57°40' E 010°41'0 0.0
2017-Feb-14 01:31N 57°40' E 010°41'0 0.0
2017-Feb-14 00:28N 57°40' E 010°41'0 0.0
2017-Feb-13 23:31N 57°40' E 010°41'0 0.0
2017-Feb-13 22:31N 57°40' E 010°41'0 0.0
2017-Feb-13 21:13N 57°40' E 010°41'0 0.0
2017-Feb-13 20:28N 57°40' E 010°41'0 0.0
2017-Feb-13 19:28N 57°40' E 010°41'0 0.0
2017-Feb-13 18:34N 57°40' E 010°41'0 0.0
2017-Feb-13 17:31N 57°40' E 010°41'0 0.0
2017-Feb-13 16:31N 57°40' E 010°41'0 0.0
2017-Feb-13 15:34N 57°40' E 010°41'0 0.0
2017-Feb-13 14:28N 57°40' E 010°41'0 0.0
2017-Feb-13 13:31N 57°40' E 010°41'0 0.0
2017-Feb-13 12:28N 57°40' E 010°41'0 0.0
2017-Feb-13 11:22N 57°40' E 010°41'0 0.1
2017-Feb-13 10:34N 57°40' E 010°41'0 0.1
2017-Feb-13 09:28N 57°40' E 010°41'0 0.0
2017-Feb-13 08:31N 57°40' E 010°41'0 0.0
2017-Feb-13 07:25N 57°40' E 010°41'0 0.0
2017-Feb-13 06:31N 57°40' E 010°41'0 0.0
2017-Feb-13 05:31N 57°40' E 010°41'0 0.0
2017-Feb-13 04:31N 57°40' E 010°41'0 0.0
2017-Feb-13 03:25N 57°40' E 010°41'0 0.0
2017-Feb-13 02:25N 57°40' E 010°41'0 0.0
2017-Feb-13 01:31N 57°40' E 010°41'0 0.0
2017-Feb-13 00:19N 57°40' E 010°41'0 0.0
2017-Feb-12 23:31N 57°40' E 010°41'3 3.6
2017-Feb-12 22:33N 57°43' E 010°44'6 6.1
2017-Feb-12 21:33N 57°47' E 010°35'9 9.3
2017-Feb-12 20:33N 57°47' E 010°17'11 9.7
2017-Feb-12 19:25N 57°46' E 009°57'910.0
2017-Feb-12 18:33N 57°44' E 009°41'1110.6
2017-Feb-12 17:32N 57°41' E 009°22'1010.5
2017-Feb-12 16:34N 57°38' E 009°03'1010.1
2017-Feb-12 15:33N 57°35' E 008°45'1010.0
2017-Feb-12 14:34N 57°32' E 008°28'9 9.3
2017-Feb-12 13:33N 57°29' E 008°11'9 8.8
2017-Feb-12 12:32N 57°26' E 007°55'352 7.7
2017-Feb-10 14:33N 52°05' E 003°46'8 8.0
2017-Feb-10 13:33N 52°02' E 003°58'1010.2
2017-Feb-10 12:33N 51°56' E 004°12'1 0.9
2017-Feb-10 11:33N 51°55' E 004°12'0 0.0
2017-Feb-10 10:33N 51°55' E 004°12'0 0.0
2017-Feb-10 09:30N 51°55' E 004°12'0 0.0
2017-Feb-10 08:33N 51°55' E 004°12'0 0.0
2017-Feb-10 07:33N 51°55' E 004°12'0 0.0
2017-Feb-10 06:33N 51°55' E 004°12'0 0.0
2017-Feb-10 05:33N 51°55' E 004°12'0 0.0
2017-Feb-10 04:33N 51°55' E 004°12'0 0.0
2017-Feb-10 03:33N 51°55' E 004°12'0 0.0
2017-Feb-10 02:30N 51°55' E 004°12'  
Track history (hours):
 
Tides and Currents Weather Stations Pressure Air Temp Water Temp Dewpoint Dewpoint Depression Visibility Wind Speed Wind Dir Waves Ship Positions

Pelagos

Last reported at 2017-Feb-20 02:08 UTC. Time now 2017-Feb-20 14:06 UTC.
Position N 59°38' E 023°20'.

Length 249 m; draft 14.6 m.

Type: Ship (hazmat cat C). MMSI: 240335000.

Date/timePositionNaut miles runAvg speedWind from/ knotsBaromVisibWave heightAir tempDewpointWater temp
2017-Feb-20 02:08N 59°38' E 023°20'911.7
2017-Feb-20 01:24N 59°40' E 023°36'1011.6
2017-Feb-20 00:31N 59°43' E 023°55'7610.8
2017-Feb-19 17:31N 59°59' E 026°22'10 9.8
2017-Feb-19 16:33N 60°01' E 026°41'2310.5
2017-Feb-19 14:22N 60°06' E 027°26'911.0
2017-Feb-19 13:33N 60°11' E 027°41'10 9.8
2017-Feb-19 12:32N 60°10' E 028°01'8 7.9
2017-Feb-19 11:34N 60°06' E 028°15'9 8.8
2017-Feb-19 10:34N 60°02' E 028°30'5 5.4
2017-Feb-19 09:34N 59°58' E 028°36'7 6.7
2017-Feb-19 08:34N 59°52' E 028°28'9 8.9
2017-Feb-19 07:33N 59°43' E 028°25'1 1.1
2017-Feb-19 06:24N 59°42' E 028°26'0 0.0
2017-Feb-19 05:24N 59°42' E 028°26'0 0.0
2017-Feb-19 04:27N 59°42' E 028°26'0 0.0
2017-Feb-19 03:27N 59°42' E 028°26'0 0.0
2017-Feb-19 02:30N 59°42' E 028°26'0 0.0
2017-Feb-19 01:30N 59°42' E 028°26'0 0.0
2017-Feb-19 00:30N 59°42' E 028°26'0 0.0
2017-Feb-18 23:30N 59°42' E 028°26'0 0.0
2017-Feb-18 22:33N 59°42' E 028°26'0 0.0
2017-Feb-18 21:33N 59°42' E 028°26'0 0.0
2017-Feb-18 20:33N 59°42' E 028°26'0 0.0
2017-Feb-18 19:33N 59°42' E 028°26'0 0.0
2017-Feb-18 18:33N 59°42' E 028°26'0 0.0
2017-Feb-18 17:33N 59°42' E 028°26'0 0.0
2017-Feb-18 16:24N 59°42' E 028°26'0 0.0
2017-Feb-18 15:24N 59°42' E 028°26'0 0.0
2017-Feb-18 14:27N 59°42' E 028°26'0 0.0
2017-Feb-18 13:27N 59°42' E 028°26'0 0.0
2017-Feb-18 12:30N 59°42' E 028°26'0 0.0
2017-Feb-18 11:30N 59°42' E 028°26'0 0.0
2017-Feb-18 10:30N 59°42' E 028°26'0 0.0
2017-Feb-18 09:33N 59°42' E 028°26'0 0.0
2017-Feb-18 08:30N 59°42' E 028°26'0 0.0
2017-Feb-18 07:30N 59°42' E 028°26'0 0.0
2017-Feb-18 06:33N 59°42' E 028°26'0 0.0
2017-Feb-18 05:33N 59°42' E 028°26'0 0.0
2017-Feb-18 04:33N 59°42' E 028°26'0 0.0
2017-Feb-18 03:33N 59°42' E 028°26'0 0.0
2017-Feb-18 02:33N 59°42' E 028°26'0 0.0
2017-Feb-18 01:33N 59°42' E 028°26'0 0.0
2017-Feb-18 00:24N 59°42' E 028°26'0 0.0
2017-Feb-17 23:25N 59°42' E 028°26'0 0.0
2017-Feb-17 22:24N 59°42' E 028°26'0 0.0
2017-Feb-17 21:28N 59°42' E 028°26'0 0.0
2017-Feb-17 20:28N 59°42' E 028°26'0 0.0
2017-Feb-17 19:28N 59°42' E 028°26'0 0.0
2017-Feb-17 18:31N 59°42' E 028°26'0 0.0
2017-Feb-17 17:33N 59°42' E 028°26'1 0.7
2017-Feb-17 16:33N 59°42' E 028°24'8 8.2
2017-Feb-17 15:33N 59°50' E 028°25'8 7.6
2017-Feb-17 14:33N 59°56' E 028°33'0 0.1
2017-Feb-17 13:33N 59°56' E 028°33'0 0.1
2017-Feb-17 12:33N 59°56' E 028°33'1 0.7
2017-Feb-17 11:33N 59°57' E 028°34'2 1.6
2017-Feb-17 10:33N 59°58' E 028°37'0 0.1
2017-Feb-17 09:33N 59°58' E 028°37'0 0.0
2017-Feb-17 08:33N 59°58' E 028°37'0 0.0
2017-Feb-17 07:33N 59°58' E 028°37'5 4.8
2017-Feb-17 06:33N 60°02' E 028°32'9 9.2
2017-Feb-17 05:33N 60°07' E 028°16'9 8.8
2017-Feb-17 04:33N 60°09' E 027°60'9 8.6
2017-Feb-17 03:33N 60°10' E 027°42'9 9.0
2017-Feb-17 02:33N 60°05' E 027°27'10 9.1
2017-Feb-17 01:25N 59°60' E 027°09'8 9.0
2017-Feb-17 00:33N 59°59' E 026°54'10 9.6
2017-Feb-16 23:33N 59°59' E 026°35'1110.7
2017-Feb-16 22:31N 59°56' E 026°14'1212.4
2017-Feb-16 21:33N 59°53' E 025°50'1413.6
2017-Feb-16 20:33N 59°50' E 025°24'4313.6
2017-Feb-16 17:22N 59°40' E 024°00'1113.5
2017-Feb-16 16:33N 59°36' E 023°40'1913.6
2017-Feb-16 15:10N 59°30' E 023°04'813.7
2017-Feb-16 14:33N 59°27' E 022°49'1313.5
2017-Feb-16 13:33N 59°21' E 022°26'27312.9
2017-Feb-15 16:21N 55°50' E 017°02'5213.4
2017-Feb-15 12:27N 55°37' E 015°32'1213.1
2017-Feb-15 11:32N 55°33' E 015°12'1313.1
2017-Feb-15 10:33N 55°28' E 014°51'1313.3
2017-Feb-15 09:33N 55°20' E 014°32'1313.1
2017-Feb-15 08:33N 55°11' E 014°16'1313.2
2017-Feb-15 07:33N 55°10' E 013°53'1313.2
2017-Feb-15 06:33N 55°12' E 013°30'1313.2
2017-Feb-15 05:33N 55°14' E 013°07'1312.5
2017-Feb-15 04:33N 55°16' E 012°45'9 9.0
2017-Feb-15 03:33N 55°24' E 012°39'9 9.2
2017-Feb-15 02:33N 55°33' E 012°47'9 9.3
2017-Feb-15 01:33N 55°40' E 012°55'1313.2
2017-Feb-15 00:33N 55°52' E 012°45'1212.4
2017-Feb-14 23:33N 56°04' E 012°38'9 9.3
2017-Feb-14 22:33N 56°10' E 012°25'10 9.6
2017-Feb-14 21:33N 56°15' E 012°10'1010.0
2017-Feb-14 20:33N 56°23' E 011°60'1110.8
2017-Feb-14 19:33N 56°34' E 011°56'1110.8
2017-Feb-14 18:33N 56°44' E 011°52'1313.0
2017-Feb-14 17:33N 56°57' E 011°44'1313.1
2017-Feb-14 16:33N 57°09' E 011°36'1212.0
2017-Feb-14 15:33N 57°20' E 011°28'1212.0
2017-Feb-14 14:33N 57°30' E 011°16'1212.1
2017-Feb-14 13:33N 57°39' E 010°60'10 9.6
2017-Feb-14 12:31N 57°40' E 010°41'0 0.1
2017-Feb-14 11:34N 57°40' E 010°41'0 0.1
2017-Feb-14 10:25N 57°40' E 010°41'0 0.0
2017-Feb-14 09:31N 57°40' E 010°41'0 0.2
2017-Feb-14 08:25N 57°40' E 010°41'0 0.0
2017-Feb-14 07:31N 57°40' E 010°41'0 0.0
2017-Feb-14 06:25N 57°40' E 010°41'0 0.0
2017-Feb-14 05:28N 57°40' E 010°41'0 0.0
2017-Feb-14 04:34N 57°40' E 010°41'0 0.0
2017-Feb-14 03:31N 57°40' E 010°41'0 0.0
2017-Feb-14 02:31N 57°40' E 010°41'0 0.0
2017-Feb-14 01:31N 57°40' E 010°41'0 0.0
2017-Feb-14 00:28N 57°40' E 010°41'0 0.0
2017-Feb-13 23:31N 57°40' E 010°41'0 0.0
2017-Feb-13 22:31N 57°40' E 010°41'0 0.0
2017-Feb-13 21:13N 57°40' E 010°41'0 0.0
2017-Feb-13 20:28N 57°40' E 010°41'0 0.0
2017-Feb-13 19:28N 57°40' E 010°41'0 0.0
2017-Feb-13 18:34N 57°40' E 010°41'0 0.0
2017-Feb-13 17:31N 57°40' E 010°41'0 0.0
2017-Feb-13 16:31N 57°40' E 010°41'0 0.0
2017-Feb-13 15:34N 57°40' E 010°41'0 0.0
2017-Feb-13 14:28N 57°40' E 010°41'0 0.0
2017-Feb-13 13:31N 57°40' E 010°41'0 0.0
2017-Feb-13 12:28N 57°40' E 010°41'0 0.0
2017-Feb-13 11:22N 57°40' E 010°41'0 0.1
2017-Feb-13 10:34N 57°40' E 010°41'0 0.1
2017-Feb-13 09:28N 57°40' E 010°41'0 0.0
2017-Feb-13 08:31N 57°40' E 010°41'0 0.0
2017-Feb-13 07:25N 57°40' E 010°41'0 0.0
2017-Feb-13 06:31N 57°40' E 010°41'0 0.0
2017-Feb-13 05:31N 57°40' E 010°41'0 0.0
2017-Feb-13 04:31N 57°40' E 010°41'0 0.0
2017-Feb-13 03:25N 57°40' E 010°41'0 0.0
2017-Feb-13 02:25N 57°40' E 010°41'0 0.0
2017-Feb-13 01:31N 57°40' E 010°41'0 0.0
2017-Feb-13 00:19N 57°40' E 010°41'0 0.0
2017-Feb-12 23:31N 57°40' E 010°41'3 3.6
2017-Feb-12 22:33N 57°43' E 010°44'6 6.1
2017-Feb-12 21:33N 57°47' E 010°35'9 9.3
2017-Feb-12 20:33N 57°47' E 010°17'11 9.7
2017-Feb-12 19:25N 57°46' E 009°57'910.0
2017-Feb-12 18:33N 57°44' E 009°41'1110.6
2017-Feb-12 17:32N 57°41' E 009°22'1010.5
2017-Feb-12 16:34N 57°38' E 009°03'1010.1
2017-Feb-12 15:33N 57°35' E 008°45'1010.0
2017-Feb-12 14:34N 57°32' E 008°28'9 9.3
2017-Feb-12 13:33N 57°29' E 008°11'9 8.8
2017-Feb-12 12:32N 57°26' E 007°55'352 7.7
2017-Feb-10 14:33N 52°05' E 003°46'8 8.0
2017-Feb-10 13:33N 52°02' E 003°58'1010.2
2017-Feb-10 12:33N 51°56' E 004°12'1 0.9
2017-Feb-10 11:33N 51°55' E 004°12'0 0.0
2017-Feb-10 10:33N 51°55' E 004°12'0 0.0
2017-Feb-10 09:30N 51°55' E 004°12'0 0.0
2017-Feb-10 08:33N 51°55' E 004°12'0 0.0
2017-Feb-10 07:33N 51°55' E 004°12'0 0.0
2017-Feb-10 06:33N 51°55' E 004°12'0 0.0
2017-Feb-10 05:33N 51°55' E 004°12'0 0.0
2017-Feb-10 04:33N 51°55' E 004°12'0 0.0
2017-Feb-10 03:33N 51°55' E 004°12'0 0.0
2017-Feb-10 02:30N 51°55' E 004°12'  

Dump ship's entire track history